Time;durP1;ratioP1;P1;durP2;ratioP2;P2;SDS_P1;SDS_P2;PMS_P1;PMS_P2;Temp;Humidity;BMP_temperature;BMP_pressure;BME280_temperature;BME280_humidity;BME280_pressure;Samples;Min_cycle;Max_cycle;Signal;HPM_P1;HPM_P2
2023/05/12 00:00:55;;;;;;;0.60;0.60;;;;;10.60;95667.00;;;;5033868;28;20189;-55
2023/05/12 00:03:22;;;;;;;0.80;0.80;;;;;10.50;95666.00;;;;5034091;28;20193;-55
2023/05/12 00:05:50;;;;;;;0.80;0.80;;;;;10.50;95672.00;;;;5034221;28;20201;-55
2023/05/12 00:08:18;;;;;;;0.97;0.97;;;;;10.60;95670.00;;;;5034441;28;20338;-55
2023/05/12 00:10:45;;;;;;;0.60;0.60;;;;;10.40;95665.00;;;;5033977;28;20197;-55
2023/05/12 00:13:13;;;;;;;0.70;0.70;;;;;10.50;95668.00;;;;5033882;28;20549;-55
2023/05/12 00:15:40;;;;;;;0.93;0.93;;;;;10.50;95660.00;;;;5034183;28;20651;-55
2023/05/12 00:18:09;;;;;;;0.97;0.97;;;;;10.40;95669.00;;;;5016210;28;20220;-55
2023/05/12 00:20:36;;;;;;;0.70;0.70;;;;;10.20;95658.00;;;;5033767;28;20189;-55
2023/05/12 00:23:04;;;;;;;0.70;0.70;;;;;10.30;95660.00;;;;5033499;28;20189;-55
2023/05/12 00:25:31;;;;;;;0.90;0.90;;;;;10.20;95659.00;;;;5015716;28;20193;-55
2023/05/12 00:27:59;;;;;;;1.50;1.40;;;;;10.30;95662.00;;;;5033823;28;20224;-55
2023/05/12 00:30:26;;;;;;;0.90;0.90;;;;;10.30;95662.00;;;;5033574;28;20581;-55
2023/05/12 00:32:54;;;;;;;0.57;0.57;;;;;10.30;95663.00;;;;5033587;28;20239;-56
2023/05/12 00:35:23;;;;;;;0.93;0.93;;;;;10.10;95659.00;;;;5033876;28;20249;-55
2023/05/12 00:37:50;;;;;;;0.70;0.70;;;;;10.10;95659.00;;;;5033203;28;20766;-55
2023/05/12 00:40:18;;;;;;;0.90;0.90;;;;;10.30;95664.00;;;;5033477;28;20204;-55
2023/05/12 00:42:45;;;;;;;0.73;0.73;;;;;10.30;95664.00;;;;5033712;28;20193;-55
2023/05/12 00:45:13;;;;;;;1.00;1.00;;;;;10.40;95660.00;;;;5015522;28;20196;-55
2023/05/12 00:47:40;;;;;;;0.60;0.60;;;;;10.40;95654.00;;;;5033642;28;20201;-55
2023/05/12 00:50:09;;;;;;;1.80;1.07;;;;;10.30;95649.00;;;;5033130;28;20196;-55
2023/05/12 00:52:37;;;;;;;2.07;1.53;;;;;10.30;95648.00;;;;5032943;28;20217;-55
2023/05/12 00:55:06;;;;;;;1.10;1.10;;;;;10.30;95650.00;;;;5033514;28;20344;-55
2023/05/12 00:57:34;;;;;;;0.60;0.60;;;;;10.20;95650.00;;;;5033771;28;20246;-55
2023/05/12 01:00:03;;;;;;;1.10;1.10;;;;;10.20;95648.00;;;;5033048;28;20210;-55
2023/05/12 01:02:31;;;;;;;0.90;0.90;;;;;10.10;95651.00;;;;5033290;28;20223;-55
2023/05/12 01:04:58;;;;;;;0.70;0.70;;;;;10.20;95649.00;;;;5033255;28;20694;-55
2023/05/12 01:07:27;;;;;;;0.90;0.90;;;;;10.10;95652.00;;;;5033091;28;20246;-55
2023/05/12 01:09:56;;;;;;;1.00;1.00;;;;;10.20;95649.00;;;;5034483;28;20266;-55
2023/05/12 01:12:24;;;;;;;1.97;1.30;;;;;10.30;95646.00;;;;5033604;28;20271;-55
2023/05/12 01:14:53;;;;;;;1.00;1.00;;;;;10.40;95645.00;;;;5033219;28;20220;-60
2023/05/12 01:17:26;;;;;;;0.70;0.70;;;;;10.40;95646.00;;;;5033394;28;20553;-58
2023/05/12 01:19:57;;;;;;;0.90;0.90;;;;;10.50;95645.00;;;;5033432;28;20247;-55
2023/05/12 01:22:25;;;;;;;0.93;0.90;;;;;10.50;95644.00;;;;5033623;28;20173;-55
2023/05/12 01:24:57;;;;;;;0.83;0.83;;;;;10.50;95645.00;;;;5032799;28;20200;-55
2023/05/12 01:27:28;;;;;;;0.83;0.83;;;;;10.50;95643.00;;;;5033002;28;20184;-55
2023/05/12 01:29:58;;;;;;;0.67;0.67;;;;;10.50;95645.00;;;;5033079;28;20612;-55
2023/05/12 01:32:25;;;;;;;0.70;0.70;;;;;10.50;95644.00;;;;5032715;28;20223;-55
2023/05/12 01:34:53;;;;;;;0.50;0.50;;;;;10.30;95646.00;;;;5032689;28;20251;-55
2023/05/12 01:37:20;;;;;;;1.43;1.40;;;;;10.30;95644.00;;;;5032623;28;20193;-55
2023/05/12 01:39:47;;;;;;;1.00;0.90;;;;;10.40;95641.00;;;;5032495;28;20217;-55
2023/05/12 01:42:15;;;;;;;0.80;0.80;;;;;10.30;95636.00;;;;5032681;28;20189;-55
2023/05/12 01:44:44;;;;;;;0.50;0.50;;;;;10.30;95633.00;;;;5014860;28;20287;-55
2023/05/12 01:47:12;;;;;;;1.03;1.03;;;;;10.30;95640.00;;;;5032602;28;20327;-55
2023/05/12 01:49:40;;;;;;;1.03;1.03;;;;;10.50;95640.00;;;;5032639;28;20775;-55
2023/05/12 01:52:07;;;;;;;0.80;0.80;;;;;10.30;95640.00;;;;5032653;28;20579;-55
2023/05/12 01:54:34;;;;;;;1.13;1.10;;;;;10.30;95637.00;;;;5032817;28;20197;-55
2023/05/12 01:57:02;;;;;;;0.83;0.83;;;;;10.20;95633.00;;;;5032732;28;20231;-55
2023/05/12 01:59:29;;;;;;;1.07;1.07;;;;;10.10;95647.00;;;;5045893;23;20217;-55
2023/05/12 02:01:58;;;;;;;0.93;0.93;;;;;10.10;95641.00;;;;5032779;28;20197;-55
2023/05/12 02:04:26;;;;;;;1.20;1.10;;;;;10.20;95638.00;;;;5032425;28;20197;-57
2023/05/12 02:06:53;;;;;;;0.70;0.70;;;;;10.20;95636.00;;;;5032490;28;20200;-56
2023/05/12 02:09:21;;;;;;;0.77;0.77;;;;;10.20;95641.00;;;;5029187;28;20213;-55
2023/05/12 02:11:49;;;;;;;0.73;0.73;;;;;10.20;95628.00;;;;5016167;28;20198;-55
2023/05/12 02:14:16;;;;;;;0.77;0.77;;;;;10.20;95635.00;;;;5016362;28;20685;-56
2023/05/12 02:16:44;;;;;;;1.50;1.00;;;;;10.00;95629.00;;;;5016446;28;20193;-56
2023/05/12 02:19:13;;;;;;;1.77;1.47;;;;;10.10;95634.00;;;;5016258;28;20194;-60
2023/05/12 02:21:40;;;;;;;1.00;1.00;;;;;10.10;95629.00;;;;5016009;28;20272;-60
2023/05/12 02:24:08;;;;;;;0.83;0.83;;;;;10.10;95635.00;;;;5015991;28;20186;-55
2023/05/12 02:26:35;;;;;;;1.00;1.00;;;;;10.20;95636.00;;;;5015868;28;20197;-55
2023/05/12 02:29:02;;;;;;;0.70;0.70;;;;;10.20;95644.00;;;;5015857;28;20236;-55
2023/05/12 02:31:30;;;;;;;0.70;0.70;;;;;10.20;95632.00;;;;5015886;28;20280;-55
2023/05/12 02:33:58;;;;;;;0.70;0.70;;;;;10.20;95635.00;;;;5016262;28;20217;-54
2023/05/12 02:36:27;;;;;;;0.80;0.80;;;;;10.30;95635.00;;;;5016392;28;20197;-54
2023/05/12 02:38:54;;;;;;;0.87;0.87;;;;;10.30;95637.00;;;;5015699;28;20198;-54
2023/05/12 02:41:22;;;;;;;0.90;0.90;;;;;10.20;95649.00;;;;5015532;28;20242;-54
2023/05/12 02:43:49;;;;;;;0.70;0.70;;;;;10.10;95636.00;;;;5015865;28;20268;-54
2023/05/12 02:46:17;;;;;;;0.70;0.70;;;;;10.10;95645.00;;;;5015553;28;20263;-54
2023/05/12 02:48:44;;;;;;;1.23;1.13;;;;;10.20;95640.00;;;;5014286;28;20198;-54
2023/05/12 02:51:11;;;;;;;0.83;0.83;;;;;10.10;95636.00;;;;5014054;28;20241;-54
2023/05/12 02:53:40;;;;;;;1.20;1.10;;;;;10.20;95635.00;;;;5015361;28;20221;-55
2023/05/12 02:56:08;;;;;;;1.07;1.07;;;;;10.20;95634.00;;;;5015626;28;20201;-54
2023/05/12 02:58:36;;;;;;;0.77;0.77;;;;;10.20;95630.00;;;;5015293;28;20198;-55
2023/05/12 03:01:03;;;;;;;1.07;1.07;;;;;10.10;95633.00;;;;5015110;28;20236;-55
2023/05/12 03:03:31;;;;;;;0.90;0.90;;;;;10.10;95625.00;;;;5015219;28;20243;-55
2023/05/12 03:05:58;;;;;;;0.73;0.73;;;;;10.10;95634.00;;;;5015076;28;20197;-55
2023/05/12 03:08:26;;;;;;;0.70;0.70;;;;;10.20;95632.00;;;;5015127;28;20200;-55
2023/05/12 03:10:54;;;;;;;18.50;1.53;;;;;10.10;95625.00;;;;5013794;28;20707;-55
2023/05/12 03:13:22;;;;;;;0.50;0.50;;;;;10.10;95633.00;;;;5014944;28;20209;-55
2023/05/12 03:15:49;;;;;;;0.80;0.80;;;;;10.10;95636.00;;;;5014932;28;20189;-55
2023/05/12 03:18:17;;;;;;;0.70;0.70;;;;;10.20;95639.00;;;;5014970;28;20209;-55
2023/05/12 03:20:44;;;;;;;1.07;1.07;;;;;10.20;95635.00;;;;5014950;28;20225;-55
2023/05/12 03:23:11;;;;;;;1.20;1.20;;;;;10.20;95631.00;;;;5014237;28;20247;-55
2023/05/12 03:25:39;;;;;;;1.33;0.90;;;;;10.20;95636.00;;;;5014870;28;20198;-55
2023/05/12 03:28:08;;;;;;;0.93;0.93;;;;;10.10;95638.00;;;;5015027;28;20197;-55
2023/05/12 03:30:35;;;;;;;1.63;1.53;;;;;10.10;95637.00;;;;5014904;28;20220;-55
2023/05/12 03:33:03;;;;;;;0.93;0.93;;;;;10.10;95634.00;;;;5014589;28;20228;-55
2023/05/12 03:35:30;;;;;;;1.00;1.00;;;;;10.00;95631.00;;;;5014647;28;20194;-55
2023/05/12 03:37:58;;;;;;;1.00;1.00;;;;;10.10;95629.00;;;;5014574;28;20280;-56
2023/05/12 03:40:25;;;;;;;0.60;0.60;;;;;10.10;95628.00;;;;5014676;28;20304;-55
2023/05/12 03:42:52;;;;;;;0.70;0.70;;;;;10.20;95630.00;;;;5014490;28;20190;-55
2023/05/12 03:45:21;;;;;;;0.73;0.73;;;;;10.20;95628.00;;;;5014682;28;20201;-55
2023/05/12 03:47:49;;;;;;;0.90;0.90;;;;;10.20;95626.00;;;;5014682;28;20201;-60
2023/05/12 03:50:16;;;;;;;0.80;0.80;;;;;10.10;95620.00;;;;5014584;28;20645;-55
2023/05/12 03:52:44;;;;;;;0.70;0.70;;;;;10.10;95619.00;;;;5014732;28;20217;-55
2023/05/12 03:55:11;;;;;;;0.63;0.63;;;;;10.10;95624.00;;;;5014268;28;20241;-55
2023/05/12 03:57:38;;;;;;;0.80;0.80;;;;;10.20;95619.00;;;;5014202;28;20201;-55
2023/05/12 04:00:07;;;;;;;1.23;1.17;;;;;10.20;95618.00;;;;5014275;28;20224;-55
2023/05/12 04:02:36;;;;;;;0.70;0.70;;;;;10.20;95617.00;;;;5014347;28;20225;-55
2023/05/12 04:05:06;;;;;;;0.70;0.70;;;;;10.10;95614.00;;;;5014291;28;20616;-55
2023/05/12 04:07:34;;;;;;;0.80;0.80;;;;;10.10;95626.00;;;;5014041;28;20235;-55
2023/05/12 04:10:02;;;;;;;1.20;1.13;;;;;10.00;95626.00;;;;5013126;28;20316;-54
2023/05/12 04:12:29;;;;;;;0.60;0.60;;;;;10.00;95612.00;;;;5013907;28;20197;-55
2023/05/12 04:14:57;;;;;;;0.80;0.80;;;;;9.90;95611.00;;;;5013971;28;20240;-55
2023/05/12 04:17:24;;;;;;;4.97;1.57;;;;;10.00;95623.00;;;;5013772;28;20668;-54
2023/05/12 04:19:53;;;;;;;0.87;0.87;;;;;10.00;95615.00;;;;5014298;28;20209;-54
2023/05/12 04:22:20;;;;;;;0.97;0.97;;;;;9.90;95632.00;;;;5014813;28;20510;-54
2023/05/12 04:24:48;;;;;;;1.00;1.00;;;;;10.20;95621.00;;;;5013892;28;20201;-54
2023/05/12 04:27:15;;;;;;;1.53;1.43;;;;;10.20;95624.00;;;;5013982;28;20197;-54
2023/05/12 04:29:43;;;;;;;1.03;1.03;;;;;10.30;95629.00;;;;5013768;28;20267;-54
2023/05/12 04:32:10;;;;;;;1.03;1.03;;;;;10.50;95632.00;;;;5013471;28;20190;-55
2023/05/12 04:34:37;;;;;;;1.10;1.10;;;;;10.60;95638.00;;;;5013853;28;20213;-55
2023/05/12 04:37:06;;;;;;;0.87;0.87;;;;;10.50;95635.00;;;;5014081;28;20255;-55
2023/05/12 04:39:34;;;;;;;0.73;0.73;;;;;10.60;95639.00;;;;5012357;28;20213;-55
2023/05/12 04:42:01;;;;;;;0.70;0.70;;;;;10.50;95638.00;;;;5013557;28;20200;-55
2023/05/12 04:44:29;;;;;;;0.70;0.70;;;;;10.60;95638.00;;;;5013380;28;20193;-55
2023/05/12 04:46:56;;;;;;;0.93;0.93;;;;;10.60;95641.00;;;;5013427;28;20204;-55
2023/05/12 04:49:24;;;;;;;0.80;0.80;;;;;10.60;95643.00;;;;5013297;28;20249;-55
2023/05/12 04:51:51;;;;;;;1.70;1.63;;;;;10.60;95639.00;;;;5013405;28;20221;-55
2023/05/12 04:54:20;;;;;;;0.97;0.97;;;;;10.50;95642.00;;;;5013260;28;20216;-55
2023/05/12 04:56:48;;;;;;;1.17;1.10;;;;;10.50;95645.00;;;;5013565;28;20200;-55
2023/05/12 04:59:15;;;;;;;0.80;0.80;;;;;10.60;95647.00;;;;5013363;28;20189;-55
2023/05/12 05:01:43;;;;;;;0.90;0.90;;;;;10.60;95653.00;;;;5013830;28;20181;-55
2023/05/12 05:04:10;;;;;;;0.97;0.97;;;;;10.70;95658.00;;;;5013310;28;20185;-55
2023/05/12 05:06:38;;;;;;;1.60;1.50;;;;;10.80;95652.00;;;;5013109;28;20267;-55
2023/05/12 05:09:06;;;;;;;0.90;0.90;;;;;10.70;95652.00;;;;5013261;28;20683;-54
2023/05/12 05:11:34;;;;;;;0.97;0.97;;;;;10.70;95661.00;;;;5013335;28;20664;-57
2023/05/12 05:14:02;;;;;;;1.10;1.10;;;;;10.60;95658.00;;;;5013030;28;20268;-54
2023/05/12 05:16:29;;;;;;;1.10;1.07;;;;;10.60;95659.00;;;;5013057;28;20273;-54
2023/05/12 05:18:57;;;;;;;0.73;0.73;;;;;10.60;95649.00;;;;5013106;28;20204;-56
2023/05/12 05:21:24;;;;;;;0.80;0.80;;;;;10.50;95645.00;;;;5013640;28;20194;-56
2023/05/12 05:23:52;;;;;;;4.03;1.43;;;;;10.50;95647.00;;;;5013266;28;20190;-55
2023/05/12 05:26:20;;;;;;;1.13;1.00;;;;;10.40;95650.00;;;;5012983;28;20363;-55
2023/05/12 05:28:49;;;;;;;1.00;1.00;;;;;10.40;95653.00;;;;5013217;28;20288;-55
2023/05/12 05:31:17;;;;;;;1.10;1.10;;;;;10.50;95654.00;;;;5012924;28;20237;-55
2023/05/12 05:33:44;;;;;;;1.17;1.17;;;;;10.60;95657.00;;;;5013139;28;20220;-56
2023/05/12 05:36:12;;;;;;;1.20;1.20;;;;;10.60;95659.00;;;;5013191;28;20197;-54
2023/05/12 05:38:39;;;;;;;1.90;1.63;;;;;10.70;95660.00;;;;5012915;28;20201;-54
2023/05/12 05:41:07;;;;;;;2.37;1.83;;;;;10.50;95659.00;;;;5012888;28;20216;-55
2023/05/12 05:43:35;;;;;;;1.43;1.37;;;;;10.60;95657.00;;;;5012840;28;20189;-56
2023/05/12 05:46:04;;;;;;;1.23;1.13;;;;;10.60;95658.00;;;;5015610;28;20723;-55
2023/05/12 05:48:31;;;;;;;2.30;2.07;;;;;10.70;95669.00;;;;5016628;28;20193;-55
2023/05/12 05:50:59;;;;;;;1.53;1.43;;;;;10.70;95667.00;;;;5016459;28;20692;-55
2023/05/12 05:53:26;;;;;;;0.87;0.87;;;;;10.70;95665.00;;;;5016488;28;20221;-55
2023/05/12 05:55:54;;;;;;;1.13;1.13;;;;;10.60;95670.00;;;;5016920;28;20632;-55
2023/05/12 05:58:21;;;;;;;1.73;1.63;;;;;10.70;95669.00;;;;5015125;28;20205;-55
2023/05/12 06:00:49;;;;;;;1.17;1.17;;;;;10.60;95662.00;;;;5016433;28;20743;-56
2023/05/12 06:03:18;;;;;;;1.40;1.40;;;;;10.80;95670.00;;;;5016355;28;20197;-56
2023/05/12 06:05:45;;;;;;;2.33;2.13;;;;;10.70;95669.00;;;;5014364;28;20244;-53
2023/05/12 06:08:13;;;;;;;1.83;1.73;;;;;10.70;95667.00;;;;5018514;28;20193;-55
2023/05/12 06:10:40;;;;;;;2.67;2.27;;;;;10.70;95667.00;;;;5013367;28;20221;-54
2023/05/12 06:13:08;;;;;;;2.67;2.27;;;;;10.80;95681.00;;;;5014842;28;20268;-54
2023/05/12 06:15:35;;;;;;;2.13;2.03;;;;;10.60;95675.00;;;;5033919;28;20204;-55
2023/05/12 06:18:03;;;;;;;2.90;2.60;;;;;10.70;95684.00;;;;5020094;28;20208;-55
2023/05/12 06:20:32;;;;;;;7.53;3.00;;;;;10.60;95680.00;;;;5020964;28;20303;-55
2023/05/12 06:23:00;;;;;;;2.33;2.13;;;;;10.70;95686.00;;;;5023081;28;20590;-55
2023/05/12 06:25:28;;;;;;;1.43;1.43;;;;;10.70;95687.00;;;;5033240;28;20567;-55
2023/05/12 06:27:55;;;;;;;1.90;1.80;;;;;10.80;95685.00;;;;5015087;28;20248;-55
2023/05/12 06:30:22;;;;;;;4.57;2.77;;;;;10.80;95681.00;;;;5013844;28;20217;-55
2023/05/12 06:32:50;;;;;;;1.93;1.83;;;;;10.80;95682.00;;;;5026671;28;20672;-55
2023/05/12 06:35:17;;;;;;;1.90;1.73;;;;;10.80;95689.00;;;;5033180;28;20573;-55
2023/05/12 06:37:48;;;;;;;2.43;2.23;;;;;10.80;95683.00;;;;5034091;28;20204;-54
2023/05/12 06:40:16;;;;;;;1.83;1.73;;;;;10.80;95684.00;;;;5031525;28;20221;-55
2023/05/12 06:42:44;;;;;;;1.60;1.50;;;;;10.90;95693.00;;;;5013245;28;20248;-55
2023/05/12 06:45:12;;;;;;;1.47;1.47;;;;;11.00;95687.00;;;;5013903;28;20208;-55
2023/05/12 06:47:40;;;;;;;2.23;2.13;;;;;11.10;95683.00;;;;5029199;28;20209;-54
2023/05/12 06:50:08;;;;;;;2.00;1.30;;;;;11.30;95679.00;;;;5012409;28;20584;-55
2023/05/12 06:52:36;;;;;;;11.23;1.77;;;;;11.40;95677.00;;;;5013647;28;20561;-54
2023/05/12 06:55:05;;;;;;;2.67;2.47;;;;;11.70;95687.00;;;;5013239;28;20225;-54
2023/05/12 06:57:33;;;;;;;1.67;1.57;;;;;11.60;95680.00;;;;5012887;28;20217;-54
2023/05/12 07:00:02;;;;;;;1.73;1.63;;;;;11.70;95689.00;;;;5013070;28;20233;-54
2023/05/12 07:02:29;;;;;;;3.00;2.80;;;;;11.70;95685.00;;;;5013280;28;20228;-54
2023/05/12 07:04:57;;;;;;;2.13;2.03;;;;;11.70;95688.00;;;;5023856;28;20209;-54
2023/05/12 07:07:24;;;;;;;1.87;1.50;;;;;11.90;95680.00;;;;5017650;28;20202;-55
2023/05/12 07:09:52;;;;;;;1.77;1.67;;;;;12.00;95684.00;;;;5012532;28;20213;-56
2023/05/12 07:12:20;;;;;;;1.60;1.50;;;;;12.10;95679.00;;;;5012966;28;20210;-55
2023/05/12 07:14:48;;;;;;;1.53;1.43;;;;;12.20;95675.00;;;;5012818;28;20217;-55
2023/05/12 07:17:15;;;;;;;1.83;1.73;;;;;12.30;95674.00;;;;5012906;28;20212;-54
2023/05/12 07:19:43;;;;;;;2.43;1.77;;;;;12.50;95678.00;;;;5012294;28;20226;-54
2023/05/12 07:22:10;;;;;;;2.83;1.37;;;;;12.50;95681.00;;;;5012341;28;20700;-54
2023/05/12 07:24:38;;;;;;;1.07;1.07;;;;;12.70;95684.00;;;;5012815;28;20190;-54
2023/05/12 07:27:07;;;;;;;1.23;1.20;;;;;12.80;95677.00;;;;5012455;28;20564;-54
2023/05/12 07:29:35;;;;;;;1.33;1.33;;;;;13.00;95681.00;;;;5012400;28;20271;-54
2023/05/12 07:32:03;;;;;;;1.97;1.77;;;;;13.20;95676.00;;;;5012305;28;20194;-54
2023/05/12 07:34:33;;;;;;;2.47;2.20;;;;;13.30;95672.00;;;;5019036;28;20303;-54
2023/05/12 07:37:02;;;;;;;2.47;2.27;;;;;13.30;95680.00;;;;5032323;28;20258;-54
2023/05/12 07:39:31;;;;;;;2.47;2.27;;;;;13.50;95673.00;;;;5032735;28;20270;-54
2023/05/12 07:41:58;;;;;;;1.67;1.40;;;;;13.30;95683.00;;;;5030514;28;20224;-54
2023/05/12 07:44:27;;;;;;;1.00;1.00;;;;;13.40;95674.00;;;;5032685;28;20246;-54
2023/05/12 07:46:55;;;;;;;1.00;1.00;;;;;13.40;95680.00;;;;5031666;28;20258;-54
2023/05/12 07:49:23;;;;;;;1.57;1.20;;;;;13.40;95676.00;;;;5025792;28;20223;-54
2023/05/12 07:51:50;;;;;;;1.73;1.63;;;;;13.50;95680.00;;;;5016891;28;20251;-54
2023/05/12 07:54:18;;;;;;;0.93;0.93;;;;;13.50;95677.00;;;;5032281;28;20270;-54
2023/05/12 07:56:45;;;;;;;1.27;1.17;;;;;13.50;95678.00;;;;5031520;28;20686;-54
2023/05/12 08:01:50;;;;;;;1.53;1.37;;;;;13.40;95681.00;;;;5072991;28;20686;-58
2023/05/12 08:04:18;;;;;;;1.00;1.00;;;;;13.40;95679.00;;;;5058013;28;20200;-58
2023/05/12 08:06:46;;;;;;;1.10;1.10;;;;;13.60;95669.00;;;;5051495;28;20207;-58
2023/05/12 08:09:13;;;;;;;2.43;1.43;;;;;13.70;95678.00;;;;5051425;28;20196;-58
2023/05/12 08:11:41;;;;;;;0.63;0.63;;;;;13.90;95676.00;;;;5031213;28;20188;-58
2023/05/12 08:14:08;;;;;;;1.33;1.23;;;;;14.00;95681.00;;;;5031978;28;20224;-58
2023/05/12 08:16:36;;;;;;;1.03;1.03;;;;;14.00;95670.00;;;;5031292;28;20199;-58
2023/05/12 08:19:03;;;;;;;0.60;0.60;;;;;14.00;95675.00;;;;5032086;28;20196;-58
2023/05/12 08:21:32;;;;;;;0.67;0.67;;;;;13.90;95674.00;;;;5031503;28;20216;-58
2023/05/12 08:23:59;;;;;;;1.07;1.07;;;;;13.90;95673.00;;;;5031936;28;20227;-58
2023/05/12 08:26:27;;;;;;;0.63;0.63;;;;;14.00;95681.00;;;;5031770;28;20223;-58
2023/05/12 08:28:55;;;;;;;1.40;1.30;;;;;14.00;95678.00;;;;5031451;28;20200;-58
2023/05/12 08:31:22;;;;;;;1.57;1.47;;;;;13.90;95674.00;;;;5031448;28;20734;-58
2023/05/12 08:33:50;;;;;;;0.70;0.70;;;;;13.90;95677.00;;;;5031549;28;20200;-58
2023/05/12 08:36:18;;;;;;;1.73;1.63;;;;;14.10;95679.00;;;;5031456;28;20319;-58
2023/05/12 08:38:46;;;;;;;1.83;1.57;;;;;14.20;95679.00;;;;5031766;28;20207;-58
2023/05/12 08:41:20;;;;;;;0.90;0.90;;;;;14.20;95679.00;;;;5026636;28;20228;-58
2023/05/12 08:43:51;;;;;;;1.40;1.27;;;;;14.20;95686.00;;;;5027311;28;20188;-58
2023/05/12 08:46:19;;;;;;;0.83;0.83;;;;;14.30;95691.00;;;;5031307;28;20728;-58
2023/05/12 08:48:50;;;;;;;0.90;0.90;;;;;14.40;95690.00;;;;5030967;28;20196;-58
2023/05/12 08:51:19;;;;;;;1.63;1.53;;;;;14.40;95695.00;;;;5031788;28;20650;-58
2023/05/12 08:53:50;;;;;;;0.60;0.60;;;;;14.50;95694.00;;;;5030680;28;20193;-58
2023/05/12 08:56:20;;;;;;;0.73;0.73;;;;;14.50;95689.00;;;;5031651;28;20227;-58
2023/05/12 08:58:48;;;;;;;0.83;0.83;;;;;14.60;95691.00;;;;5031314;28;20617;-59
2023/05/12 09:01:17;;;;;;;0.63;0.63;;;;;14.70;95691.00;;;;5031257;28;20252;-58
2023/05/12 09:03:45;;;;;;;0.67;0.67;;;;;14.80;95689.00;;;;5030622;28;20250;-58
2023/05/12 09:06:13;;;;;;;0.80;0.80;;;;;14.70;95691.00;;;;5030999;28;20189;-58
2023/05/12 09:08:41;;;;;;;0.63;0.63;;;;;14.30;95688.00;;;;5030751;28;20207;-58
2023/05/12 09:11:12;;;;;;;0.70;0.70;;;;;14.30;95682.00;;;;5031292;28;20607;-59
2023/05/12 09:13:48;;;;;;;0.77;0.77;;;;;14.40;95704.00;;;;5030524;28;20193;-58
2023/05/12 09:16:22;;;;;;;0.87;0.87;;;;;14.10;95689.00;;;;5031260;28;20726;-59
2023/05/12 09:18:51;;;;;;;0.60;0.60;;;;;13.90;95702.00;;;;5031503;28;20235;-58
2023/05/12 09:21:19;;;;;;;1.17;0.90;;;;;14.00;95693.00;;;;5035188;28;20225;-58
2023/05/12 09:23:54;;;;;;;0.80;0.80;;;;;14.30;95697.00;;;;5034512;28;20675;-59
2023/05/12 09:26:24;;;;;;;0.70;0.70;;;;;14.00;95692.00;;;;5035234;28;20334;-59
2023/05/12 09:28:53;;;;;;;0.70;0.70;;;;;14.20;95701.00;;;;5033258;28;20588;-59
2023/05/12 09:31:23;;;;;;;0.87;0.87;;;;;14.40;95695.00;;;;5034868;28;20641;-59
2023/05/12 09:33:51;;;;;;;0.80;0.80;;;;;14.60;95691.00;;;;5034757;28;20250;-58
2023/05/12 09:36:20;;;;;;;0.70;0.70;;;;;14.90;95692.00;;;;5034501;28;20216;-59
2023/05/12 09:38:58;;;;;;;0.63;0.63;;;;;15.10;95684.00;;;;5034769;28;20668;-59
2023/05/12 09:41:27;;;;;;;0.60;0.60;;;;;15.10;95684.00;;;;5030987;28;20224;-59
2023/05/12 09:43:55;;;;;;;0.70;0.70;;;;;15.10;95692.00;;;;5034084;28;20234;-58
2023/05/12 09:46:24;;;;;;;0.90;0.90;;;;;15.40;95693.00;;;;5034778;28;20208;-58
2023/05/12 09:48:54;;;;;;;0.60;0.60;;;;;15.40;95686.00;;;;5033972;28;20282;-58
2023/05/12 09:51:22;;;;;;;0.50;0.50;;;;;15.50;95698.00;;;;5034970;28;20317;-58
2023/05/12 09:53:50;;;;;;;0.60;0.60;;;;;15.30;95701.00;;;;5034104;28;20542;-58
2023/05/12 09:56:18;;;;;;;0.77;0.73;;;;;15.10;95700.00;;;;5034638;28;20221;-59
2023/05/12 09:58:49;;;;;;;0.50;0.50;;;;;14.90;95698.00;;;;5033761;28;20205;-58
2023/05/12 10:01:18;;;;;;;0.60;0.60;;;;;14.50;95705.00;;;;5033132;28;20726;-59
2023/05/12 10:03:48;;;;;;;0.70;0.70;;;;;14.30;95701.00;;;;5033758;28;20206;-58
2023/05/12 10:06:20;;;;;;;0.67;0.67;;;;;13.90;95711.00;;;;5033318;28;20204;-59
2023/05/12 10:08:53;;;;;;;0.90;0.90;;;;;13.60;95717.00;;;;5033786;28;20208;-59
2023/05/12 10:11:22;;;;;;;1.07;1.07;;;;;13.60;95714.00;;;;5034357;28;20275;-59
2023/05/12 10:13:51;;;;;;;0.70;0.70;;;;;13.60;95707.00;;;;5032087;28;20197;-59
2023/05/12 10:16:20;;;;;;;1.00;0.90;;;;;13.60;95709.00;;;;5034166;28;20216;-59
2023/05/12 10:18:48;;;;;;;0.60;0.60;;;;;13.40;95710.00;;;;5033086;28;20201;-60
2023/05/12 10:21:16;;;;;;;0.70;0.70;;;;;13.60;95711.00;;;;5034004;28;20232;-58
2023/05/12 10:23:45;;;;;;;1.23;1.13;;;;;13.50;95705.00;;;;5033822;28;20586;-59
2023/05/12 10:26:13;;;;;;;0.90;0.90;;;;;13.50;95711.00;;;;5033928;28;20192;-59
2023/05/12 10:28:41;;;;;;;1.40;1.30;;;;;13.50;95708.00;;;;5029275;28;20280;-59
2023/05/12 10:31:11;;;;;;;1.00;1.00;;;;;13.60;95709.00;;;;5033284;28;20209;-59
2023/05/12 10:33:38;;;;;;;1.23;0.90;;;;;13.60;95709.00;;;;5032497;28;20216;-59
2023/05/12 10:36:16;;;;;;;1.00;1.00;;;;;13.60;95705.00;;;;5028886;28;20221;-59
2023/05/12 10:38:44;;;;;;;1.00;1.00;;;;;13.70;95705.00;;;;5029431;28;20201;-60
2023/05/12 10:41:12;;;;;;;0.80;0.80;;;;;13.70;95704.00;;;;5033379;28;20691;-59
2023/05/12 10:43:41;;;;;;;0.70;0.70;;;;;13.70;95701.00;;;;5033356;28;20223;-59
2023/05/12 10:46:15;;;;;;;0.57;0.57;;;;;13.90;95696.00;;;;5033666;28;20604;-59
2023/05/12 10:48:52;;;;;;;0.60;0.60;;;;;14.00;95703.00;;;;5033310;28;20227;-60
2023/05/12 10:51:21;;;;;;;0.67;0.67;;;;;14.00;95700.00;;;;5033151;28;20663;-61
2023/05/12 10:53:53;;;;;;;0.83;0.83;;;;;13.80;95702.00;;;;5033169;28;20667;-58
2023/05/12 10:56:26;;;;;;;1.43;1.33;;;;;13.90;95709.00;;;;5027690;28;20217;-59
2023/05/12 10:59:13;;;;;;;0.70;0.70;;;;;13.80;95708.00;;;;5033219;28;20205;-59
2023/05/12 11:01:43;;;;;;;0.90;0.90;;;;;13.60;95714.00;;;;5032785;28;20205;-60
2023/05/12 11:04:12;;;;;;;0.73;0.73;;;;;13.60;95709.00;;;;5033077;28;20251;-58
2023/05/12 11:06:40;;;;;;;0.60;0.60;;;;;13.80;95706.00;;;;5031713;28;20219;-58
2023/05/12 11:09:08;;;;;;;0.87;0.87;;;;;13.80;95700.00;;;;5032171;28;20209;-59
2023/05/12 11:11:36;;;;;;;0.97;0.73;;;;;13.80;95693.00;;;;5032645;28;20252;-59
2023/05/12 11:14:04;;;;;;;0.77;0.77;;;;;13.70;95707.00;;;;5032778;28;20201;-58
2023/05/12 11:16:31;;;;;;;1.00;1.00;;;;;14.10;95710.00;;;;5033099;28;20558;-59
2023/05/12 11:19:04;;;;;;;0.80;0.80;;;;;14.20;95708.00;;;;5032780;28;20196;-58
2023/05/12 11:21:33;;;;;;;2.77;1.17;;;;;14.20;95708.00;;;;5028711;28;20581;-59
2023/05/12 11:24:01;;;;;;;0.70;0.70;;;;;14.30;95711.00;;;;5032536;28;20204;-59
2023/05/12 11:26:29;;;;;;;0.80;0.80;;;;;14.70;95717.00;;;;5032505;28;20193;-58
2023/05/12 11:28:58;;;;;;;0.97;0.97;;;;;14.90;95710.00;;;;5032868;28;20641;-59
2023/05/12 11:31:25;;;;;;;0.67;0.67;;;;;14.90;95717.00;;;;5032423;28;20225;-59
2023/05/12 11:34:04;;;;;;;2.37;1.33;;;;;14.90;95715.00;;;;5032337;28;20767;-59
2023/05/12 11:36:37;;;;;;;2.07;1.90;;;;;14.90;95720.00;;;;5032420;28;20280;-59
2023/05/12 11:39:06;;;;;;;0.70;0.70;;;;;15.00;95719.00;;;;5032504;28;20197;-59
2023/05/12 11:41:33;;;;;;;0.60;0.60;;;;;15.00;95715.00;;;;5030851;28;20228;-60
2023/05/12 11:44:12;;;;;;;0.70;0.70;;;;;15.10;95721.00;;;;5031250;28;20197;-59
2023/05/12 11:46:40;;;;;;;0.73;0.73;;;;;15.10;95722.00;;;;5028074;28;20221;-58
2023/05/12 11:49:11;;;;;;;0.50;0.50;;;;;15.10;95707.00;;;;5027606;28;20209;-59
2023/05/12 11:51:42;;;;;;;0.70;0.70;;;;;15.10;95714.00;;;;5032076;28;20216;-58
2023/05/12 11:54:10;;;;;;;0.63;0.63;;;;;15.30;95710.00;;;;5032095;28;20597;-59
2023/05/12 11:56:37;;;;;;;1.23;0.73;;;;;15.40;95711.00;;;;5031955;28;20243;-59
2023/05/12 11:59:05;;;;;;;0.80;0.80;;;;;15.60;95723.00;;;;5031887;28;20560;-59
2023/05/12 12:01:43;;;;;;;1.17;1.00;;;;;15.60;95727.00;;;;5031947;28;20232;-59
2023/05/12 12:04:19;;;;;;;0.90;0.90;;;;;15.80;95729.00;;;;5088656;28;20547;-59
2023/05/12 12:06:47;;;;;;;0.63;0.63;;;;;15.80;95724.00;;;;5091932;28;20638;-59
2023/05/12 12:09:14;;;;;;;1.13;1.07;;;;;15.90;95723.00;;;;5088798;28;20546;-58
2023/05/12 12:11:42;;;;;;;0.57;0.57;;;;;15.80;95726.00;;;;5068111;28;20203;-59
2023/05/12 12:14:09;;;;;;;0.70;0.70;;;;;15.80;95727.00;;;;5068312;28;20192;-59
2023/05/12 12:16:37;;;;;;;1.37;1.27;;;;;15.90;95718.00;;;;5068270;28;20278;-59
2023/05/12 12:19:04;;;;;;;1.03;1.03;;;;;15.70;95732.00;;;;5068067;28;20262;-58
2023/05/12 12:21:33;;;;;;;1.43;1.10;;;;;15.70;95734.00;;;;5067875;28;20215;-59
2023/05/12 12:24:01;;;;;;;0.80;0.80;;;;;15.60;95734.00;;;;5066415;28;20241;-58
2023/05/12 12:26:28;;;;;;;1.60;1.20;;;;;15.60;95735.00;;;;5067823;28;20223;-59